createdAt,value
2019-04-06T00:01:24.105Z,66.97
2019-04-06T00:03:52.415Z,68.87
2019-04-06T00:06:20.827Z,67.00
2019-04-06T00:08:49.155Z,70.30
2019-04-06T00:11:17.520Z,74.43
2019-04-06T00:13:45.896Z,70.47
2019-04-06T00:16:14.232Z,69.17
2019-04-06T00:18:42.615Z,69.27
2019-04-06T00:21:10.935Z,71.57
2019-04-06T00:23:39.263Z,69.43
2019-04-06T00:26:07.622Z,67.50
2019-04-06T00:28:35.902Z,71.70
2019-04-06T00:31:04.293Z,72.27
2019-04-06T00:33:32.568Z,75.63
2019-04-06T00:36:01.040Z,77.03
2019-04-06T00:38:29.316Z,79.13
2019-04-06T00:40:57.623Z,74.37
2019-04-06T00:43:25.925Z,75.23
2019-04-06T00:45:54.219Z,73.93
2019-04-06T00:48:22.500Z,73.37
2019-04-06T00:50:50.879Z,75.03
2019-04-06T00:53:19.158Z,70.97
2019-04-06T00:55:55.540Z,76.67
2019-04-06T00:58:17.419Z,77.20
2019-04-06T01:00:45.737Z,78.33
2019-04-06T01:03:14.008Z,83.30
2019-04-06T01:05:42.323Z,77.30
2019-04-06T01:08:10.673Z,83.57
2019-04-06T01:10:38.998Z,82.37
2019-04-06T01:13:07.289Z,81.30
2019-04-06T01:15:35.736Z,92.80
2019-04-06T01:18:04.132Z,90.53
2019-04-06T01:20:32.462Z,83.30
2019-04-06T01:23:00.766Z,91.33
2019-04-06T01:25:29.040Z,90.17
2019-04-06T01:27:57.403Z,84.03
2019-04-06T01:30:25.683Z,93.70
2019-04-06T01:32:53.978Z,87.23
2019-04-06T01:35:22.274Z,97.03
2019-04-06T01:37:50.583Z,87.37
2019-04-06T01:40:18.857Z,88.83
2019-04-06T01:42:47.235Z,92.87
2019-04-06T01:45:15.582Z,89.47
2019-04-06T01:47:43.881Z,86.20
2019-04-06T01:50:12.227Z,88.40
2019-04-06T01:52:40.538Z,83.37
2019-04-06T01:55:08.902Z,89.80
2019-04-06T01:57:37.187Z,99.07
2019-04-06T02:00:08.203Z,82.07
2019-04-06T02:02:36.499Z,77.00
2019-04-06T02:05:05.846Z,80.07
2019-04-06T02:07:34.156Z,87.63
2019-04-06T02:10:03.456Z,80.90
2019-04-06T02:12:31.756Z,87.97
2019-04-06T02:15:00.075Z,88.33
2019-04-06T02:17:28.429Z,78.13
2019-04-06T02:19:56.726Z,68.17
2019-04-06T02:22:25.019Z,72.00
2019-04-06T02:24:53.389Z,72.80
2019-04-06T02:27:21.694Z,72.10
2019-04-06T02:29:50.138Z,73.40
2019-04-06T02:32:18.439Z,79.80
2019-04-06T02:34:46.867Z,82.43
2019-04-06T02:37:15.151Z,72.80
2019-04-06T02:39:43.447Z,72.83
2019-04-06T02:42:11.767Z,79.67
2019-04-06T02:44:40.530Z,76.60
2019-04-06T02:47:08.834Z,70.10
2019-04-06T02:49:37.222Z,74.27
2019-04-06T02:52:05.529Z,74.80
2019-04-06T02:54:33.868Z,83.70
2019-04-06T02:57:02.309Z,73.20
2019-04-06T02:59:30.601Z,73.97
2019-04-06T03:01:58.950Z,77.97
2019-04-06T03:04:27.262Z,73.50
2019-04-06T03:06:55.602Z,67.13
2019-04-06T03:09:23.926Z,71.47
2019-04-06T03:11:52.307Z,68.37
2019-04-06T03:14:20.770Z,74.37
2019-04-06T03:16:49.068Z,73.30
2019-04-06T03:19:17.647Z,75.00
2019-04-06T03:21:46.014Z,72.03
2019-04-06T03:24:14.294Z,68.57
2019-04-06T03:26:42.609Z,69.07
2019-04-06T03:29:11.117Z,73.07
2019-04-06T03:31:39.460Z,61.67
2019-04-06T03:34:07.913Z,71.73
2019-04-06T03:36:36.219Z,70.93
2019-04-06T03:39:05.167Z,69.20
2019-04-06T03:41:33.476Z,72.97
2019-04-06T03:44:02.012Z,75.53
2019-04-06T03:46:30.379Z,69.77
2019-04-06T03:48:58.743Z,69.00
2019-04-06T03:51:27.221Z,68.87
2019-04-06T03:53:55.587Z,78.07
2019-04-06T03:56:23.904Z,66.70
2019-04-06T03:58:52.726Z,65.53
2019-04-06T04:01:21.124Z,71.00
2019-04-06T04:03:49.435Z,69.00
2019-04-06T04:06:17.719Z,74.20
2019-04-06T04:08:46.308Z,66.53
2019-04-06T04:11:14.613Z,73.00
2019-04-06T04:13:42.924Z,70.23
2019-04-06T04:16:11.277Z,72.43
2019-04-06T04:18:39.647Z,67.97
2019-04-06T04:21:07.929Z,69.97
2019-04-06T04:23:36.239Z,71.67
2019-04-06T04:26:04.680Z,66.87
2019-04-06T04:28:32.984Z,66.17
2019-04-06T04:31:01.261Z,75.87
2019-04-06T04:33:29.632Z,69.00
2019-04-06T04:35:57.947Z,78.17
2019-04-06T04:38:26.322Z,71.97
2019-04-06T04:40:54.684Z,72.60
2019-04-06T04:43:23.047Z,70.93
2019-04-06T04:45:51.335Z,78.53
2019-04-06T04:48:19.713Z,65.47
2019-04-06T04:50:47.995Z,73.57
2019-04-06T04:53:16.292Z,71.40
2019-04-06T04:55:44.571Z,69.50
2019-04-06T04:58:12.851Z,72.50
2019-04-06T05:00:41.228Z,73.87
2019-04-06T05:03:09.817Z,75.10
2019-04-06T05:05:38.245Z,68.90
2019-04-06T05:08:06.537Z,72.63
2019-04-06T05:10:34.897Z,71.67
2019-04-06T05:13:03.429Z,64.97
2019-04-06T05:15:33.383Z,70.37
2019-04-06T05:18:05.922Z,73.00
2019-04-06T05:20:35.282Z,69.70
2019-04-06T05:23:03.700Z,71.47
2019-04-06T05:25:32.337Z,68.53
2019-04-06T05:28:00.680Z,69.70
2019-04-06T05:30:28.985Z,68.70
2019-04-06T05:32:57.259Z,70.90
2019-04-06T05:35:25.564Z,65.93
2019-04-06T05:37:53.843Z,67.73
2019-04-06T05:40:25.231Z,70.93
2019-04-06T05:42:54.286Z,63.77
2019-04-06T05:45:22.730Z,66.70
2019-04-06T05:47:51.007Z,63.03
2019-04-06T05:50:19.386Z,65.73
2019-04-06T05:52:47.787Z,58.77
2019-04-06T05:55:16.080Z,59.53
2019-04-06T05:57:44.806Z,61.07
2019-04-06T06:00:13.175Z,62.13
2019-04-06T06:02:41.910Z,63.67
2019-04-06T06:05:11.078Z,65.50
2019-04-06T06:07:39.562Z,61.73
2019-04-06T06:10:08.038Z,58.70
2019-04-06T06:12:36.646Z,55.33
2019-04-06T06:15:05.613Z,60.67
2019-04-06T06:17:33.920Z,58.23
2019-04-06T06:20:07.608Z,59.70
2019-04-06T06:22:37.123Z,55.47
2019-04-06T06:25:05.474Z,58.03
2019-04-06T06:27:33.955Z,55.33
2019-04-06T06:30:05.072Z,52.00
2019-04-06T06:32:33.842Z,54.67
2019-04-06T06:35:02.224Z,50.60
2019-04-06T06:37:30.529Z,51.60
2019-04-06T06:39:58.878Z,52.80
2019-04-06T06:42:27.199Z,51.40
2019-04-06T06:44:55.635Z,48.37
2019-04-06T06:47:24.007Z,47.70
2019-04-06T06:49:52.348Z,41.83
2019-04-06T06:52:20.733Z,50.10
2019-04-06T06:54:49.054Z,42.43
2019-04-06T06:57:17.353Z,44.67
2019-04-06T06:59:45.715Z,43.07
2019-04-06T07:02:13.993Z,39.43
2019-04-06T07:04:42.301Z,39.10
2019-04-06T07:07:10.765Z,42.47
2019-04-06T07:09:39.069Z,42.57
2019-04-06T07:12:07.545Z,42.90
2019-04-06T07:14:36.014Z,40.83
2019-04-06T07:17:04.355Z,42.00
2019-04-06T07:19:32.905Z,41.20
2019-04-06T07:22:01.254Z,42.13
2019-04-06T07:24:29.581Z,48.40
2019-04-06T07:26:57.869Z,43.63
2019-04-06T07:29:26.185Z,48.33
2019-04-06T07:31:54.461Z,47.63
2019-04-06T07:34:22.795Z,49.30
2019-04-06T07:36:51.117Z,49.43
2019-04-06T07:39:19.425Z,49.20
2019-04-06T07:41:50.918Z,54.00
2019-04-06T07:44:19.225Z,50.40
2019-04-06T07:46:47.571Z,48.90
2019-04-06T07:49:15.846Z,47.03
2019-04-06T07:51:44.162Z,44.83
2019-04-06T07:54:12.685Z,45.67
2019-04-06T07:56:41.119Z,42.43
2019-04-06T07:59:09.440Z,44.47
2019-04-06T08:01:37.743Z,43.30
2019-04-06T08:04:06.025Z,43.27
2019-04-06T08:06:34.328Z,43.37
2019-04-06T08:09:04.283Z,41.90
2019-04-06T08:11:32.598Z,42.20
2019-04-06T08:14:00.891Z,42.60
2019-04-06T08:16:29.200Z,40.70
2019-04-06T08:18:57.478Z,41.67
2019-04-06T08:21:25.855Z,45.37
2019-04-06T08:23:54.208Z,40.90
2019-04-06T08:26:22.828Z,44.37
2019-04-06T08:29:00.253Z,41.33
2019-04-06T08:31:21.202Z,41.17
2019-04-06T08:33:49.551Z,39.97
2019-04-06T08:36:17.966Z,38.83
2019-04-06T08:38:46.254Z,39.73
2019-04-06T08:41:14.650Z,41.30
2019-04-06T08:43:42.944Z,37.93
2019-04-06T08:46:11.288Z,36.90
2019-04-06T08:48:39.621Z,42.10
2019-04-06T08:51:08.072Z,40.93
2019-04-06T08:53:36.465Z,40.13
2019-04-06T08:56:04.813Z,36.40
2019-04-06T08:58:33.169Z,38.13
2019-04-06T09:01:03.732Z,35.67
2019-04-06T09:03:32.299Z,32.40
2019-04-06T09:06:00.979Z,36.50
2019-04-06T09:08:29.589Z,33.60
2019-04-06T09:10:57.883Z,35.67
2019-04-06T09:13:26.378Z,35.80
2019-04-06T09:15:54.675Z,35.33
2019-04-06T09:18:23.198Z,35.70
2019-04-06T09:20:51.606Z,33.17
2019-04-06T09:23:20.118Z,30.97
2019-04-06T09:25:48.629Z,34.03
2019-04-06T09:28:17.146Z,33.73
2019-04-06T09:30:45.482Z,35.03
2019-04-06T09:33:14.089Z,33.17
2019-04-06T09:35:42.501Z,31.10
2019-04-06T09:38:14.130Z,27.33
2019-04-06T09:40:42.481Z,31.67
2019-04-06T09:43:10.933Z,32.97
2019-04-06T09:45:41.366Z,29.77
2019-04-06T09:48:09.367Z,31.47
2019-04-06T09:50:37.854Z,28.63
2019-04-06T09:53:06.133Z,29.63
2019-04-06T09:55:34.521Z,23.00
2019-04-06T09:58:03.420Z,32.90
2019-04-06T10:00:31.898Z,33.47
2019-04-06T10:03:00.176Z,32.83
2019-04-06T10:05:28.662Z,32.27
2019-04-06T10:08:01.191Z,30.93
2019-04-06T10:10:29.593Z,31.30
2019-04-06T10:12:57.880Z,35.40
2019-04-06T10:15:26.263Z,35.30
2019-04-06T10:17:54.798Z,33.40
2019-04-06T10:20:23.170Z,39.70
2019-04-06T10:22:51.469Z,36.47
2019-04-06T10:25:19.779Z,32.53
2019-04-06T10:27:48.223Z,38.03
2019-04-06T10:30:16.609Z,39.30
2019-04-06T10:32:44.968Z,37.90
2019-04-06T10:35:13.406Z,38.63
2019-04-06T10:37:41.715Z,39.23
2019-04-06T10:40:10.164Z,35.37
2019-04-06T10:42:38.474Z,38.33
2019-04-06T10:45:06.979Z,37.77
2019-04-06T10:47:35.586Z,37.80
2019-04-06T10:50:04.712Z,38.17
2019-04-06T10:52:33.086Z,37.73
2019-04-06T10:55:01.698Z,37.03
2019-04-06T10:57:30.618Z,31.50
2019-04-06T11:00:14.272Z,38.57
2019-04-06T11:02:42.735Z,37.63
2019-04-06T11:05:11.153Z,32.77
2019-04-06T11:07:39.527Z,36.67
2019-04-06T11:10:07.994Z,39.77
2019-04-06T11:12:36.303Z,39.63
2019-04-06T11:15:05.289Z,37.93
2019-04-06T11:17:33.730Z,41.10
2019-04-06T11:20:02.105Z,38.53
2019-04-06T11:22:30.483Z,38.60
2019-04-06T11:24:58.898Z,39.47
2019-04-06T11:27:27.207Z,37.80
2019-04-06T11:29:55.790Z,38.77
2019-04-06T11:32:24.283Z,36.10
2019-04-06T11:34:57.148Z,37.23
2019-04-06T11:37:25.718Z,35.67
2019-04-06T11:39:55.023Z,38.17
2019-04-06T11:42:23.372Z,39.87
2019-04-06T11:45:08.666Z,34.93
2019-04-06T11:47:28.804Z,37.73
2019-04-06T11:49:57.200Z,38.53
2019-04-06T11:52:25.500Z,36.47
2019-04-06T11:54:53.887Z,35.27
2019-04-06T11:57:22.255Z,39.23
2019-04-06T11:59:50.864Z,39.30
2019-04-06T12:02:19.611Z,34.90
2019-04-06T12:04:48.023Z,39.67
2019-04-06T12:07:16.334Z,35.43
2019-04-06T12:09:44.809Z,37.00
2019-04-06T12:12:13.173Z,34.27
2019-04-06T12:14:41.608Z,38.27
2019-04-06T12:17:10.025Z,33.10
2019-04-06T12:19:38.394Z,34.47
2019-04-06T12:22:06.819Z,34.67
2019-04-06T12:24:35.127Z,37.43
2019-04-06T12:27:03.560Z,36.13
2019-04-06T12:29:31.888Z,34.30
2019-04-06T12:32:00.213Z,34.43
2019-04-06T12:34:28.597Z,39.63
2019-04-06T12:36:56.984Z,35.10
2019-04-06T12:39:25.344Z,36.10
2019-04-06T12:41:53.793Z,34.90
2019-04-06T12:44:22.289Z,35.47
2019-04-06T12:46:50.793Z,38.13
2019-04-06T12:49:19.153Z,35.20
2019-04-06T12:51:47.477Z,38.50
2019-04-06T12:54:18.277Z,35.37
2019-04-06T12:56:46.050Z,34.23
2019-04-06T12:59:17.524Z,35.70
2019-04-06T13:01:45.880Z,35.00
2019-04-06T13:04:14.229Z,35.37
2019-04-06T13:06:42.650Z,35.37
2019-04-06T13:09:11.089Z,34.13
2019-04-06T13:11:39.448Z,30.33
2019-04-06T13:14:07.722Z,32.17
2019-04-06T13:16:36.076Z,32.60
2019-04-06T13:19:04.493Z,33.87
2019-04-06T13:21:33.212Z,34.07
2019-04-06T13:24:01.608Z,28.20
2019-04-06T13:26:29.896Z,36.50
2019-04-06T13:28:58.266Z,32.87
2019-04-06T13:31:26.826Z,34.10
2019-04-06T13:33:55.487Z,29.77
2019-04-06T13:36:23.909Z,33.50
2019-04-06T13:38:52.499Z,44.97
2019-04-06T13:41:20.878Z,37.70
2019-04-06T13:43:49.260Z,41.80
2019-04-06T13:46:17.558Z,40.07
2019-04-06T13:48:45.874Z,39.97
2019-04-06T13:51:14.173Z,40.10
2019-04-06T13:53:42.485Z,39.83
2019-04-06T13:56:10.909Z,44.17
2019-04-06T13:58:39.222Z,40.80
2019-04-06T14:01:15.063Z,40.97
2019-04-06T14:03:37.690Z,41.13
2019-04-06T14:06:06.044Z,42.53
2019-04-06T14:08:34.419Z,41.50
2019-04-06T14:11:03.017Z,37.70
2019-04-06T14:13:31.381Z,45.43
2019-04-06T14:15:59.900Z,40.70
2019-04-06T14:18:28.285Z,43.57
2019-04-06T14:20:56.952Z,43.77
2019-04-06T14:23:25.342Z,44.03
2019-04-06T14:25:53.892Z,44.30
2019-04-06T14:28:22.210Z,42.47
2019-04-06T14:30:50.559Z,38.53
2019-04-06T14:33:18.967Z,42.20
2019-04-06T14:35:47.371Z,44.27
2019-04-06T14:38:15.749Z,43.83
2019-04-06T14:40:44.106Z,42.10
2019-04-06T14:43:12.435Z,40.37
2019-04-06T14:45:40.799Z,31.03
2019-04-06T14:48:09.741Z,29.00
2019-04-06T14:50:38.535Z,29.93
2019-04-06T14:53:06.936Z,24.47
2019-04-06T14:55:35.554Z,24.70
2019-04-06T14:58:04.143Z,25.40
2019-04-06T15:00:32.545Z,25.17
2019-04-06T15:03:00.896Z,26.23
2019-04-06T15:05:29.209Z,26.10
2019-04-06T15:07:57.610Z,24.07
2019-04-06T15:10:25.986Z,24.87
2019-04-06T15:12:54.399Z,23.67
2019-04-06T15:15:22.826Z,23.70
2019-04-06T15:17:51.189Z,25.23
2019-04-06T15:20:19.549Z,25.93
2019-04-06T15:22:47.930Z,23.80
2019-04-06T15:25:16.218Z,24.97
2019-04-06T15:27:44.981Z,27.77
2019-04-06T15:30:13.755Z,29.70
2019-04-06T15:32:42.077Z,33.07
2019-04-06T15:35:10.451Z,31.47
2019-04-06T15:37:38.884Z,26.73
2019-04-06T15:40:07.634Z,23.57
2019-04-06T15:42:36.350Z,31.07
2019-04-06T15:45:04.861Z,24.67
2019-04-06T15:47:33.177Z,26.93
2019-04-06T15:50:01.563Z,22.60
2019-04-06T15:52:29.957Z,24.13
2019-04-06T15:54:58.320Z,21.67
2019-04-06T15:57:26.703Z,26.03
2019-04-06T15:59:55.072Z,21.27
2019-04-06T16:02:23.386Z,24.90
2019-04-06T16:04:51.726Z,25.83
2019-04-06T16:07:29.730Z,25.20
2019-04-06T16:09:50.322Z,24.20
2019-04-06T16:12:18.700Z,25.70
2019-04-06T16:14:47.064Z,21.10
2019-04-06T16:17:15.522Z,23.33
2019-04-06T16:19:44.167Z,23.00
2019-04-06T16:22:12.586Z,26.93
2019-04-06T16:24:40.970Z,21.13
2019-04-06T16:27:10.416Z,24.53
2019-04-06T16:29:39.004Z,24.87
2019-04-06T16:32:12.393Z,25.50
2019-04-06T16:34:37.907Z,22.37
2019-04-06T16:37:06.564Z,22.60
2019-04-06T16:39:34.998Z,24.80
2019-04-06T16:42:03.463Z,25.27
2019-04-06T16:44:31.863Z,24.20
2019-04-06T16:47:00.211Z,21.57
2019-04-06T16:49:29.040Z,21.73
2019-04-06T16:51:57.637Z,21.53
2019-04-06T16:54:26.080Z,23.87
2019-04-06T16:56:54.477Z,22.57
2019-04-06T16:59:23.108Z,21.63
2019-04-06T17:01:52.211Z,22.43
2019-04-06T17:04:22.510Z,23.67
2019-04-06T17:06:51.115Z,25.40
2019-04-06T17:09:19.575Z,21.00
2019-04-06T17:11:48.113Z,23.83
2019-04-06T17:14:16.967Z,24.43
2019-04-06T17:16:45.520Z,24.03
2019-04-06T17:19:14.361Z,22.33
2019-04-06T17:21:42.861Z,21.87
2019-04-06T17:24:11.290Z,23.60
2019-04-06T17:26:42.306Z,25.33
2019-04-06T17:29:10.215Z,28.27
2019-04-06T17:31:38.991Z,24.67
2019-04-06T17:34:07.457Z,24.93
2019-04-06T17:36:35.935Z,24.27
2019-04-06T17:39:05.828Z,25.33
2019-04-06T17:41:34.269Z,26.60
2019-04-06T17:44:02.744Z,24.13
2019-04-06T17:46:31.522Z,24.53
2019-04-06T17:49:02.216Z,27.57
2019-04-06T17:51:31.017Z,28.20
2019-04-06T17:53:59.650Z,28.13
2019-04-06T17:56:28.448Z,30.77
2019-04-06T17:58:56.866Z,31.17
2019-04-06T18:01:25.293Z,40.07
2019-04-06T18:03:54.041Z,22.53
2019-04-06T18:06:22.409Z,25.30
2019-04-06T18:08:51.099Z,23.83
2019-04-06T18:11:19.502Z,25.60
2019-04-06T18:13:47.942Z,29.30
2019-04-06T18:16:18.847Z,24.00
2019-04-06T18:18:47.415Z,23.73
2019-04-06T18:21:15.841Z,28.30
2019-04-06T18:23:44.888Z,30.27
2019-04-06T18:26:13.306Z,26.63
2019-04-06T18:28:41.946Z,25.13
2019-04-06T18:31:10.708Z,26.87
2019-04-06T18:33:40.258Z,28.23
2019-04-06T18:36:09.637Z,27.63
2019-04-06T18:38:38.680Z,28.53
2019-04-06T18:41:07.455Z,29.80
2019-04-06T18:43:36.581Z,27.90
2019-04-06T18:46:05.506Z,28.27
2019-04-06T18:48:34.213Z,37.47
2019-04-06T18:51:03.370Z,31.33
2019-04-06T18:53:32.292Z,33.33
2019-04-06T18:56:01.790Z,30.00
2019-04-06T18:58:30.612Z,28.67
2019-04-06T19:00:59.583Z,27.03
2019-04-06T19:03:28.386Z,35.13
2019-04-06T19:05:57.281Z,36.73
2019-04-06T19:08:26.193Z,33.63
2019-04-06T19:10:55.941Z,37.73
2019-04-06T19:13:25.096Z,36.57
2019-04-06T19:15:54.055Z,38.97
2019-04-06T19:18:22.959Z,41.10
2019-04-06T19:20:51.906Z,43.67
2019-04-06T19:23:20.869Z,44.50
2019-04-06T19:25:49.835Z,38.73
2019-04-06T19:28:18.596Z,37.60
2019-04-06T19:30:47.728Z,37.10
2019-04-06T19:33:24.270Z,39.27
2019-04-06T19:35:47.415Z,44.30
2019-04-06T19:38:16.752Z,45.10
2019-04-06T19:40:46.054Z,45.40
2019-04-06T19:43:17.227Z,51.17
2019-04-06T19:45:45.489Z,42.40
2019-04-06T19:48:14.333Z,42.87
2019-04-06T19:50:43.133Z,43.43
2019-04-06T19:53:12.391Z,41.70
2019-04-06T19:55:41.238Z,46.13
2019-04-06T19:58:10.437Z,46.40
2019-04-06T20:00:40.344Z,44.60
2019-04-06T20:03:09.323Z,45.90
2019-04-06T20:05:38.200Z,45.67
2019-04-06T20:08:07.199Z,46.73
2019-04-06T20:10:37.467Z,50.13
2019-04-06T20:13:07.363Z,49.67
2019-04-06T20:15:36.417Z,46.33
2019-04-06T20:18:05.419Z,43.33
2019-04-06T20:20:34.862Z,47.00
2019-04-06T20:23:03.855Z,49.67
2019-04-06T20:25:32.954Z,49.10
2019-04-06T20:28:01.962Z,49.00
2019-04-06T20:30:30.741Z,45.90
2019-04-06T20:32:59.501Z,49.30
2019-04-06T20:35:28.476Z,50.20
2019-04-06T20:37:57.302Z,53.97
2019-04-06T20:40:26.678Z,53.00
2019-04-06T20:42:55.470Z,53.23
2019-04-06T20:45:24.669Z,48.67
2019-04-06T20:47:53.961Z,49.33
2019-04-06T20:50:23.409Z,49.43
2019-04-06T20:52:52.508Z,45.53
2019-04-06T20:55:21.340Z,47.90
2019-04-06T20:57:50.139Z,51.53
2019-04-06T21:00:19.842Z,53.67
2019-04-06T21:02:49.067Z,53.70
2019-04-06T21:05:18.362Z,58.40
2019-04-06T21:07:47.244Z,56.10
2019-04-06T21:10:16.441Z,57.63
2019-04-06T21:12:45.235Z,54.87
2019-04-06T21:15:19.347Z,56.07
2019-04-06T21:17:44.963Z,65.40
2019-04-06T21:20:14.121Z,59.53
2019-04-06T21:22:43.570Z,60.93
2019-04-06T21:25:12.579Z,60.47
2019-04-06T21:27:43.170Z,68.50
2019-04-06T21:30:12.335Z,68.07
2019-04-06T21:32:41.431Z,73.40
2019-04-06T21:35:10.379Z,68.73
2019-04-06T21:37:39.163Z,72.47
2019-04-06T21:40:08.226Z,74.30
2019-04-06T21:42:37.635Z,78.03
2019-04-06T21:45:08.175Z,77.67
2019-04-06T21:47:37.468Z,79.73
2019-04-06T21:50:06.888Z,81.37
2019-04-06T21:52:35.762Z,87.27
2019-04-06T21:55:06.144Z,82.23
2019-04-06T21:57:35.501Z,85.50
2019-04-06T22:00:07.395Z,87.50
2019-04-06T22:02:36.936Z,86.87
2019-04-06T22:05:07.033Z,87.13
2019-04-06T22:07:47.106Z,91.77
2019-04-06T22:10:07.229Z,89.33
2019-04-06T22:12:36.593Z,87.80
2019-04-06T22:15:07.557Z,90.03
2019-04-06T22:17:36.502Z,92.30
2019-04-06T22:20:07.389Z,95.97
2019-04-06T22:22:36.817Z,95.27
2019-04-06T22:25:08.481Z,93.73
2019-04-06T22:27:37.266Z,95.70
2019-04-06T22:30:07.984Z,88.77
2019-04-06T22:32:36.818Z,98.83
2019-04-06T22:35:07.261Z,100.87
2019-04-06T22:37:36.177Z,92.97
2019-04-06T22:40:05.641Z,96.57
2019-04-06T22:42:34.394Z,97.63
2019-04-06T22:45:08.287Z,100.53
2019-04-06T22:47:37.228Z,95.63
2019-04-06T22:50:07.038Z,101.63
2019-04-06T22:52:36.651Z,97.27
2019-04-06T22:55:06.150Z,98.03
2019-04-06T22:57:34.965Z,101.70
2019-04-06T23:00:06.745Z,99.73
2019-04-06T23:02:36.224Z,98.43
2019-04-06T23:05:05.497Z,97.30
2019-04-06T23:07:34.830Z,100.93
2019-04-06T23:10:04.369Z,98.33
2019-04-06T23:12:33.733Z,98.80
2019-04-06T23:15:03.418Z,98.80
2019-04-06T23:17:32.210Z,95.33
2019-04-06T23:20:01.208Z,98.60
2019-04-06T23:22:30.197Z,99.20
2019-04-06T23:24:59.079Z,94.83
2019-04-06T23:27:27.954Z,96.60
2019-04-06T23:29:56.899Z,97.20
2019-04-06T23:32:26.103Z,99.97
2019-04-06T23:34:59.835Z,89.97
2019-04-06T23:37:25.360Z,96.97
2019-04-06T23:39:54.122Z,92.90
2019-04-06T23:42:22.882Z,93.97
2019-04-06T23:44:51.696Z,88.57
2019-04-06T23:47:20.410Z,93.70
2019-04-06T23:49:49.580Z,100.10
2019-04-06T23:52:18.363Z,96.57
2019-04-06T23:54:47.381Z,92.67
2019-04-06T23:57:16.247Z,85.37
2019-04-06T23:59:45.021Z,87.47
